Gateway, Colorado
Current Conditions -  °F | °C
As of 9:55 AM on Monday 22 Dec 2014 (Local Time) from KAIB Reporting Station
Moderate Rain Moderate Rain  
Wind Chill: 37°   Ceiling: 2500
Heat Index: 37°   Visibility: 5mi
Dew Point: 34°   Wind: 0mph
Humidity: 87%   Direction: NA
Pressure: 29.95"   Gusts: NA
Location:  38.68°N, 108.97°W
Report Text: KAIB 221655Z AUTO 00000KT 5SM RA SCT018 BKN025 OVC034 03/01 A2995 RMK AO2
Loading
Personal Weather Stations






























Interactive Weather Map New forecast layout! Learn more

10-Day Weather Forecast

Advertisements
Track Severe Weather on mobile